Time;durP1;ratioP1;P1;durP2;ratioP2;P2;SDS_P1;SDS_P2;PMS_P1;PMS_P2;Temp;Humidity;BMP_temperature;BMP_pressure;BME280_temperature;BME280_humidity;BME280_pressure;Samples;Min_cycle;Max_cycle;Signal;HPM_P1;HPM_P2
2024/04/01 00:02:07;;;;;;;3.13;0.95;;;;;;;18.65;50.56;99223.59;4991327;28;20045;-72
2024/04/01 00:04:32;;;;;;;3.15;1.20;;;;;;;18.48;50.38;99208.78;4991662;28;21076;-70
2024/04/01 00:06:57;;;;;;;4.47;1.08;;;;;;;18.89;50.49;99261.53;4992028;28;20033;-73
2024/04/01 00:09:22;;;;;;;3.08;1.10;;;;;;;18.81;50.71;99249.16;4991245;28;20073;-70
2024/04/01 00:11:48;;;;;;;4.17;1.10;;;;;;;18.75;50.44;99236.63;4993153;28;20025;-72
2024/04/01 00:14:13;;;;;;;3.30;1.00;;;;;;;18.88;50.59;99254.59;4992212;28;20323;-70
2024/04/01 00:16:38;;;;;;;3.25;1.00;;;;;;;18.83;50.45;99239.25;4992779;28;20270;-72
2024/04/01 00:19:04;;;;;;;2.50;1.05;;;;;;;18.71;50.51;99221.28;4992562;28;20942;-70
2024/04/01 00:21:30;;;;;;;2.60;1.00;;;;;;;18.74;50.28;99227.06;4992012;28;20064;-69
2024/04/01 00:23:56;;;;;;;3.05;1.00;;;;;;;18.81;50.47;99243.88;4992201;28;20567;-68
2024/04/01 00:26:22;;;;;;;3.33;1.15;;;;;;;18.84;50.31;99254.13;4992788;28;20794;-68
2024/04/01 00:28:47;;;;;;;2.72;1.10;;;;;;;18.61;50.45;99230.22;4991696;28;20491;-68
2024/04/01 00:31:12;;;;;;;2.58;1.05;;;;;;;18.66;50.33;99233.19;4992035;28;20042;-69
2024/04/01 00:33:38;;;;;;;2.08;0.90;;;;;;;18.76;50.09;99240.09;4992829;28;20124;-68
2024/04/01 00:36:03;;;;;;;3.10;1.08;;;;;;;18.80;50.34;99239.59;4989496;28;20049;-69
2024/04/01 00:38:28;;;;;;;2.50;1.00;;;;;;;18.64;50.28;99207.94;4992621;28;20061;-68
2024/04/01 00:40:54;;;;;;;2.53;1.10;;;;;;;18.69;50.17;99218.81;4990692;28;20050;-68
2024/04/01 00:43:19;;;;;;;3.17;1.10;;;;;;;18.64;50.16;99200.03;4992110;28;20472;-68
2024/04/01 00:45:46;;;;;;;3.15;1.02;;;;;;;18.80;49.98;99222.91;4991338;28;20046;-69
2024/04/01 00:48:13;;;;;;;2.25;0.82;;;;;;;18.55;50.13;99172.00;4991647;28;20062;-71
2024/04/01 00:50:42;;;;;;;2.17;1.10;;;;;;;18.77;50.18;99207.41;4992157;28;20037;-68
2024/04/01 00:53:10;;;;;;;2.72;0.90;;;;;;;18.78;50.17;99207.25;4991782;28;20461;-68
2024/04/01 00:55:39;;;;;;;3.28;0.90;;;;;;;18.65;50.00;99186.66;4991631;28;20251;-68
2024/04/01 00:58:05;;;;;;;3.78;1.13;;;;;;;18.61;49.93;99174.81;4991520;28;20034;-70
2024/04/01 01:00:32;;;;;;;2.83;1.00;;;;;;;18.65;50.23;99184.03;5007232;28;20084;-68
2024/04/01 01:02:58;;;;;;;2.45;0.90;;;;;;;18.65;50.05;99184.03;4990951;28;20044;-68
2024/04/01 01:05:24;;;;;;;2.67;1.15;;;;;;;18.64;50.02;99194.75;4992561;28;20096;-71
2024/04/01 01:07:50;;;;;;;2.58;0.80;;;;;;;18.63;49.88;99191.28;4991541;28;20052;-69
2024/04/01 01:10:16;;;;;;;2.30;0.90;;;;;;;18.68;49.78;99201.34;4991324;28;20450;-69
2024/04/01 01:12:42;;;;;;;2.28;0.85;;;;;;;18.68;50.32;99210.06;4990567;28;20038;-71
2024/04/01 01:15:10;;;;;;;2.03;0.90;;;;;;;18.56;49.79;99194.75;4990365;28;20026;-68
2024/04/01 01:17:36;;;;;;;2.63;1.13;;;;;;;18.64;49.83;99202.66;4990286;28;20030;-69
2024/04/01 01:20:03;;;;;;;2.92;1.00;;;;;;;18.58;49.77;99192.78;4991532;28;20034;-67
2024/04/01 01:22:34;;;;;;;2.75;1.00;;;;;;;18.49;49.89;99187.50;4991483;28;20069;-70
2024/04/01 01:25:00;;;;;;;2.53;1.00;;;;;;;18.70;49.56;99232.84;4990614;28;20049;-69
2024/04/01 01:27:25;;;;;;;2.22;0.90;;;;;;;18.57;49.66;99212.25;4990960;28;20120;-68
2024/04/01 01:29:50;;;;;;;2.58;1.00;;;;;;;18.52;49.75;99199.56;4991702;28;20377;-69
2024/04/01 01:32:16;;;;;;;1.58;0.70;;;;;;;18.58;49.63;99209.44;4990295;28;20431;-69
2024/04/01 01:34:42;;;;;;;2.63;1.17;;;;;;;18.57;49.78;99214.88;4990662;28;20759;-72
2024/04/01 01:37:08;;;;;;;1.85;0.77;;;;;;;18.49;49.62;99190.16;4989602;28;20413;-71
2024/04/01 01:39:34;;;;;;;2.05;0.80;;;;;;;18.68;49.58;99227.75;4990438;28;20042;-71
2024/04/01 01:41:59;;;;;;;2.20;0.90;;;;;;;18.49;49.68;99194.63;4991690;28;20041;-71
2024/04/01 01:44:24;;;;;;;1.50;0.75;;;;;;;18.65;49.47;99226.25;4991658;28;20049;-68
2024/04/01 01:46:50;;;;;;;2.03;0.80;;;;;;;18.64;49.39;99231.69;4990076;28;20485;-71
2024/04/01 01:49:15;;;;;;;2.22;0.90;;;;;;;18.48;49.60;99206.16;4991075;28;20046;-68
2024/04/01 01:51:40;;;;;;;3.40;1.10;;;;;;;18.63;49.29;99230.88;4991199;28;20427;-69
2024/04/01 01:54:06;;;;;;;2.08;0.75;;;;;;;18.60;49.59;99218.00;4988584;28;20041;-71
2024/04/01 01:56:31;;;;;;;2.42;0.90;;;;;;;18.49;49.60;99208.63;4991181;28;20775;-69
2024/04/01 01:58:57;;;;;;;2.38;0.85;;;;;;;18.51;49.43;99218.19;4990724;28;21122;-68
2024/04/01 02:01:23;;;;;;;2.28;0.88;;;;;;;18.51;49.29;99223.47;4990501;28;20121;-71
2024/04/01 02:03:48;;;;;;;2.35;0.80;;;;;;;18.59;49.19;99234.00;4990324;28;20038;-71
2024/04/01 02:06:15;;;;;;;1.67;0.90;;;;;;;18.38;49.42;99201.03;4989917;28;20475;-69
2024/04/01 02:08:40;;;;;;;2.63;0.70;;;;;;;18.55;49.22;99228.25;4991156;28;20053;-70
2024/04/01 02:11:12;;;;;;;1.45;0.70;;;;;;;18.57;49.41;99247.38;4990557;28;20034;-68
2024/04/01 02:13:39;;;;;;;2.53;1.02;;;;;;;18.59;49.19;99244.56;4989619;28;20037;-69
2024/04/01 02:16:08;;;;;;;2.47;0.80;;;;;;;18.59;49.28;99237.47;4990244;28;20041;-69
2024/04/01 02:18:34;;;;;;;1.77;0.70;;;;;;;18.57;49.33;99238.63;4991165;28;20095;-69
2024/04/01 02:21:00;;;;;;;1.50;0.70;;;;;;;18.49;49.13;99221.00;4989282;28;20038;-68
2024/04/01 02:23:31;;;;;;;2.90;0.88;;;;;;;18.53;49.19;99232.03;4988490;28;20799;-69
2024/04/01 02:26:02;;;;;;;1.42;0.70;;;;;;;18.52;49.05;99231.22;4990702;28;20183;-71
2024/04/01 02:28:31;;;;;;;1.58;0.73;;;;;;;18.59;49.07;99236.66;4990275;28;20034;-71
2024/04/01 02:30:57;;;;;;;1.45;0.60;;;;;;;18.40;49.13;99203.53;4989383;28;20037;-69
2024/04/01 02:33:23;;;;;;;1.98;0.70;;;;;;;18.46;49.50;99223.97;4989928;28;20040;-69
2024/04/01 02:35:50;;;;;;;1.13;0.65;;;;;;;18.52;49.06;99230.38;4989178;28;20041;-69
2024/04/01 02:38:15;;;;;;;1.52;0.70;;;;;;;18.55;48.97;99240.59;4990586;28;20101;-68
2024/04/01 02:40:40;;;;;;;1.58;0.65;;;;;;;18.54;49.18;99234.50;4990242;28;20111;-71
2024/04/01 02:43:06;;;;;;;1.42;0.70;;;;;;;18.44;49.12;99226.75;4989841;28;20038;-68
2024/04/01 02:45:31;;;;;;;1.60;0.70;;;;;;;18.55;49.13;99240.59;4990788;28;20080;-72
2024/04/01 02:47:57;;;;;;;1.38;0.75;;;;;;;18.55;48.87;99243.22;4988682;28;20680;-69
2024/04/01 02:50:22;;;;;;;1.73;0.80;;;;;;;18.53;49.03;99238.13;4989436;28;20043;-72
2024/04/01 02:52:48;;;;;;;1.52;0.77;;;;;;;18.51;49.11;99229.56;4989792;28;20041;-68
2024/04/01 02:55:14;;;;;;;1.23;0.60;;;;;;;18.23;49.03;99187.72;4990438;28;20037;-69
2024/04/01 02:57:39;;;;;;;3.08;1.00;;;;;;;18.27;49.08;99182.94;4988999;28;20038;-70
2024/04/01 03:00:05;;;;;;;2.45;0.70;;;;;;;18.50;48.89;99220.00;4989680;28;20033;-69
2024/04/01 03:02:33;;;;;;;2.30;0.80;;;;;;;18.45;49.04;99203.84;4988794;28;20042;-69
2024/04/01 03:04:58;;;;;;;1.88;0.80;;;;;;;18.34;48.83;99197.13;4990669;28;20037;-69
2024/04/01 03:07:24;;;;;;;1.77;0.70;;;;;;;18.48;48.95;99221.97;4990100;28;20026;-69
2024/04/01 03:09:54;;;;;;;1.60;0.60;;;;;;;18.30;48.97;99193.97;4988715;28;20034;-68
2024/04/01 03:12:20;;;;;;;1.70;0.60;;;;;;;18.31;48.74;99200.09;4989918;28;20125;-72
2024/04/01 03:14:45;;;;;;;2.05;0.73;;;;;;;18.46;48.85;99230.06;4989798;28;20113;-69
2024/04/01 03:17:11;;;;;;;1.70;0.80;;;;;;;18.47;48.74;99231.72;4990043;28;20038;-69
2024/04/01 03:19:37;;;;;;;2.17;0.80;;;;;;;18.46;48.94;99221.31;4990001;28;20042;-68
2024/04/01 03:22:03;;;;;;;2.17;0.80;;;;;;;18.43;48.88;99214.56;4990478;28;20034;-68
2024/04/01 03:24:28;;;;;;;1.48;0.65;;;;;;;18.31;48.78;99184.25;4989527;28;20088;-68
2024/04/01 03:26:53;;;;;;;2.28;0.90;;;;;;;18.33;48.90;99184.09;4988891;28;20550;-70
2024/04/01 03:29:19;;;;;;;1.63;0.70;;;;;;;18.33;48.63;99182.28;4989430;28;20045;-69
2024/04/01 03:31:44;;;;;;;1.55;0.70;;;;;;;18.38;48.81;99197.59;4989515;28;20062;-70
2024/04/01 03:34:09;;;;;;;1.33;0.63;;;;;;;18.37;48.74;99199.38;4990386;28;20038;-68
2024/04/01 03:36:35;;;;;;;1.40;0.63;;;;;;;18.30;48.71;99190.50;4993605;28;20919;-69
2024/04/01 03:39:00;;;;;;;1.50;0.68;;;;;;;18.31;48.75;99194.81;4991274;28;20083;-68
2024/04/01 03:41:25;;;;;;;2.10;0.63;;;;;;;18.28;48.55;99181.94;4992842;28;20030;-70
2024/04/01 03:43:50;;;;;;;1.85;0.80;;;;;;;18.28;48.85;99185.41;4992919;28;20391;-70
2024/04/01 03:46:16;;;;;;;1.20;0.60;;;;;;;18.31;48.74;99200.91;4991730;28;20038;-70
2024/04/01 03:48:41;;;;;;;1.38;0.60;;;;;;;18.42;48.61;99218.19;4992080;28;20144;-72
2024/04/01 03:51:06;;;;;;;1.45;0.70;;;;;;;18.30;48.57;99201.88;4993360;28;20463;-69
2024/04/01 03:53:32;;;;;;;0.80;0.63;;;;;;;18.39;48.75;99215.91;4992984;28;20026;-69
2024/04/01 03:55:57;;;;;;;1.63;0.70;;;;;;;18.38;48.85;99222.16;4993680;28;20053;-69
2024/04/01 03:58:22;;;;;;;2.40;0.80;;;;;;;18.41;48.63;99232.38;4992664;28;20355;-72
2024/04/01 04:00:48;;;;;;;1.52;0.73;;;;;;;18.29;48.64;99215.22;4992599;28;20479;-68
2024/04/01 04:03:13;;;;;;;1.35;0.70;;;;;;;18.35;48.62;99230.38;4984389;28;20144;-68
2024/04/01 04:05:38;;;;;;;2.17;0.80;;;;;;;17.94;48.73;99165.31;4992208;28;20456;-71
2024/04/01 04:08:04;;;;;;;1.85;0.70;;;;;;;18.22;48.34;99201.88;4993566;28;20026;-69
2024/04/01 04:10:30;;;;;;;1.83;0.70;;;;;;;18.19;48.58;99198.75;4992410;28;20037;-70
2024/04/01 04:12:55;;;;;;;1.17;0.60;;;;;;;18.36;48.34;99220.66;4992082;28;20902;-71
2024/04/01 04:15:21;;;;;;;2.35;0.80;;;;;;;18.33;48.34;99213.09;4992778;28;20038;-69
2024/04/01 04:17:47;;;;;;;1.70;0.77;;;;;;;18.19;48.58;99196.13;4992358;28;20030;-69
2024/04/01 04:20:12;;;;;;;2.22;0.60;;;;;;;18.29;48.58;99223.13;4991471;28;20504;-71
2024/04/01 04:22:37;;;;;;;1.27;0.60;;;;;;;18.24;48.46;99223.63;4992971;28;20037;-69
2024/04/01 04:25:03;;;;;;;2.03;0.60;;;;;;;18.22;48.38;99224.78;4993079;28;20149;-70
2024/04/01 04:27:28;;;;;;;1.38;0.60;;;;;;;18.28;48.58;99229.41;4991999;28;20117;-70
2024/04/01 04:29:53;;;;;;;1.55;0.70;;;;;;;18.35;48.42;99243.56;4992364;28;20030;-69
2024/04/01 04:32:19;;;;;;;1.17;0.50;;;;;;;18.11;48.29;99197.75;4990546;28;20042;-69
2024/04/01 04:34:44;;;;;;;1.10;0.60;;;;;;;18.32;48.36;99233.34;4991663;28;20124;-70
2024/04/01 04:37:10;;;;;;;1.65;0.80;;;;;;;18.22;48.43;99214.25;4983613;28;20037;-72
2024/04/01 04:39:36;;;;;;;1.58;0.60;;;;;;;18.24;48.30;99221.00;4992935;28;20526;-69
2024/04/01 04:42:02;;;;;;;1.00;0.52;;;;;;;18.18;48.43;99218.19;4991279;28;21005;-68
2024/04/01 04:44:28;;;;;;;1.55;0.70;;;;;;;18.17;48.50;99219.19;4988958;28;20033;-69
2024/04/01 04:46:53;;;;;;;1.02;0.60;;;;;;;18.21;48.04;99231.84;4991117;28;20131;-68
2024/04/01 04:49:19;;;;;;;3.30;0.70;;;;;;;18.24;48.35;99236.00;4992070;28;20042;-72
2024/04/01 04:51:45;;;;;;;2.88;0.80;;;;;;;18.30;48.44;99237.97;4991556;28;20476;-68
2024/04/01 04:54:10;;;;;;;2.15;0.70;;;;;;;18.24;48.13;99230.72;4992810;28;20113;-68
2024/04/01 04:56:35;;;;;;;1.88;0.70;;;;;;;18.15;48.43;99216.72;4991058;28;20045;-72
2024/04/01 04:59:03;;;;;;;2.13;0.70;;;;;;;18.19;48.37;99217.22;4992233;28;20410;-69
2024/04/01 05:01:29;;;;;;;1.73;0.70;;;;;;;18.28;48.09;99242.59;4991132;28;20563;-70
2024/04/01 05:03:54;;;;;;;1.88;0.80;;;;;;;18.24;48.21;99228.91;4989776;28;20149;-69
2024/04/01 05:06:20;;;;;;;2.55;0.68;;;;;;;18.19;48.21;99227.75;4991362;28;20142;-68
2024/04/01 05:08:45;;;;;;;2.58;0.70;;;;;;;18.17;48.24;99221.84;4991859;28;20030;-69
2024/04/01 05:11:10;;;;;;;1.25;0.57;;;;;;;18.26;48.21;99234.00;4991659;28;20113;-68
2024/04/01 05:13:36;;;;;;;1.73;0.60;;;;;;;18.15;48.10;99218.50;4990700;28;20048;-69
2024/04/01 05:16:05;;;;;;;1.23;0.50;;;;;;;18.11;48.45;99216.19;4990890;28;20074;-69
2024/04/01 05:18:31;;;;;;;1.73;0.70;;;;;;;18.09;48.43;99220.00;4990935;28;20030;-69
2024/04/01 05:20:57;;;;;;;1.80;0.68;;;;;;;18.26;47.96;99241.91;4991506;28;20034;-69
2024/04/01 05:23:23;;;;;;;0.88;0.40;;;;;;;18.18;48.24;99229.56;4991368;28;20242;-72
2024/04/01 05:25:48;;;;;;;1.10;0.60;;;;;;;18.11;48.40;99218.84;4991827;28;20034;-69
2024/04/01 05:28:14;;;;;;;0.95;0.57;;;;;;;18.11;48.33;99224.13;4990840;28;20030;-69
2024/04/01 05:30:39;;;;;;;1.03;0.53;;;;;;;18.29;48.43;99257.41;4991129;28;20042;-69
2024/04/01 05:33:04;;;;;;;2.45;0.80;;;;;;;18.24;48.53;99252.63;4991214;28;20283;-68
2024/04/01 05:35:33;;;;;;;1.75;0.50;;;;;;;18.23;48.74;99251.00;4989331;28;20030;-71
2024/04/01 05:38:02;;;;;;;0.70;0.40;;;;;;;18.30;48.40;99256.44;4989846;28;20038;-68
2024/04/01 05:40:28;;;;;;;1.83;0.70;;;;;;;18.34;48.38;99264.84;4990621;28;20564;-68
2024/04/01 05:42:53;;;;;;;2.15;0.52;;;;;;;18.23;48.55;99252.78;4990037;28;20069;-72
2024/04/01 05:45:19;;;;;;;1.90;0.90;;;;;;;18.34;48.48;99270.97;4989500;28;20022;-69
2024/04/01 05:47:45;;;;;;;1.35;0.50;;;;;;;18.28;48.51;99271.59;4991197;28;20378;-68
2024/04/01 05:50:10;;;;;;;0.93;0.50;;;;;;;18.39;48.52;99281.84;4991261;28;20080;-70
2024/04/01 05:52:35;;;;;;;0.65;0.40;;;;;;;18.30;48.48;99273.06;4990884;28;20123;-70
2024/04/01 05:55:02;;;;;;;1.35;0.55;;;;;;;18.39;48.54;99284.47;4990913;28;20484;-68
2024/04/01 05:57:27;;;;;;;1.35;0.60;;;;;;;18.41;48.74;99293.03;4991383;28;20038;-68
2024/04/01 05:59:55;;;;;;;1.25;0.63;;;;;;;18.29;48.48;99279.34;4989525;28;20045;-69
2024/04/01 06:02:21;;;;;;;1.55;0.55;;;;;;;18.40;48.35;99296.66;4990973;28;20063;-70
2024/04/01 06:04:46;;;;;;;0.82;0.38;;;;;;;18.45;48.74;99297.00;4990059;28;20072;-71
2024/04/01 06:07:11;;;;;;;1.33;0.50;;;;;;;18.44;48.63;99294.53;4990001;28;20030;-70
2024/04/01 06:09:36;;;;;;;1.40;0.63;;;;;;;18.48;48.65;99295.84;4991304;28;20344;-72
2024/04/01 06:12:02;;;;;;;1.00;0.50;;;;;;;18.36;48.41;99281.31;4990520;28;20871;-69
2024/04/01 06:14:27;;;;;;;1.27;0.60;;;;;;;18.30;48.84;99282.81;4989963;28;20041;-70
2024/04/01 06:16:53;;;;;;;0.77;0.50;;;;;;;18.49;48.67;99308.88;4990272;28;20069;-69
2024/04/01 06:19:18;;;;;;;1.83;0.60;;;;;;;18.36;48.62;99281.31;4990443;28;20271;-69
2024/04/01 06:21:43;;;;;;;1.45;0.65;;;;;;;18.46;48.60;99306.56;4988468;28;20038;-72
2024/04/01 06:24:08;;;;;;;1.13;0.57;;;;;;;18.46;48.46;99301.28;4991403;28;20076;-69
2024/04/01 06:26:36;;;;;;;1.38;0.50;;;;;;;18.37;48.61;99283.78;4990217;28;20760;-72
2024/04/01 06:29:02;;;;;;;0.60;0.40;;;;;;;18.52;48.43;99313.00;4989565;28;20490;-69
2024/04/01 06:31:27;;;;;;;3.50;0.63;;;;;;;18.39;48.14;99286.25;4991154;28;20040;-69
2024/04/01 06:33:52;;;;;;;0.80;0.40;;;;;;;18.53;48.30;99316.44;4989566;28;20627;-68
2024/04/01 06:36:19;;;;;;;0.60;0.40;;;;;;;18.30;48.42;99274.91;4990805;28;20034;-68
2024/04/01 06:38:44;;;;;;;1.08;0.50;;;;;;;18.31;48.56;99274.75;4990268;28;20034;-69
2024/04/01 06:41:09;;;;;;;1.15;0.50;;;;;;;18.49;48.39;99305.41;4989801;28;20381;-71
2024/04/01 06:43:35;;;;;;;0.95;0.50;;;;;;;18.41;48.28;99298.31;4989945;28;20037;-70
2024/04/01 06:46:01;;;;;;;0.90;0.50;;;;;;;18.48;48.22;99316.94;4990198;28;20943;-70
2024/04/01 06:48:27;;;;;;;0.90;0.50;;;;;;;18.32;48.40;99286.09;4989174;28;20491;-70
2024/04/01 06:50:53;;;;;;;0.82;0.50;;;;;;;18.34;48.31;99296.50;4989805;28;20041;-69
2024/04/01 06:53:19;;;;;;;0.95;0.65;;;;;;;18.51;48.21;99319.25;4987950;28;20046;-69
2024/04/01 06:55:45;;;;;;;2.10;0.60;;;;;;;18.43;48.20;99309.50;4979936;28;20137;-69
2024/04/01 06:58:11;;;;;;;1.15;0.57;;;;;;;18.53;48.30;99321.72;4990025;28;20029;-69
2024/04/01 07:00:36;;;;;;;1.17;0.60;;;;;;;18.52;48.12;99328.81;4989870;28;20029;-70
2024/04/01 07:03:02;;;;;;;1.00;0.50;;;;;;;18.40;48.09;99309.84;4989607;28;20045;-70
2024/04/01 07:05:28;;;;;;;1.55;0.60;;;;;;;18.57;48.22;99344.16;4989845;28;20418;-69
2024/04/01 07:07:53;;;;;;;1.15;0.50;;;;;;;18.55;48.16;99344.34;4989859;28;20605;-72
2024/04/01 07:10:18;;;;;;;1.92;0.55;;;;;;;18.44;48.05;99329.63;4992305;28;20037;-71
2024/04/01 07:12:44;;;;;;;1.83;0.57;;;;;;;18.49;48.49;99348.44;4993506;28;20250;-71
2024/04/01 07:15:09;;;;;;;1.20;0.60;;;;;;;18.40;48.16;99330.94;4993620;28;20318;-69
2024/04/01 07:17:35;;;;;;;1.52;0.55;;;;;;;18.44;48.17;99340.19;4993928;28;20042;-69
2024/04/01 07:20:01;;;;;;;1.77;0.60;;;;;;;18.56;48.06;99359.16;4993296;28;20200;-70
2024/04/01 07:22:26;;;;;;;1.67;0.60;;;;;;;18.42;48.27;99339.53;4994162;28;20089;-69
2024/04/01 07:24:51;;;;;;;3.92;0.70;;;;;;;18.40;48.36;99344.13;4992604;28;20037;-69
2024/04/01 07:27:17;;;;;;;2.00;0.77;;;;;;;18.58;48.44;99365.13;4991501;28;20037;-73
2024/04/01 07:29:42;;;;;;;4.10;0.80;;;;;;;18.54;48.77;99360.31;4991944;28;20085;-70
2024/04/01 07:32:07;;;;;;;2.50;0.65;;;;;;;18.46;48.71;99351.41;4992851;28;20038;-72
2024/04/01 07:34:33;;;;;;;1.42;0.60;;;;;;;18.58;48.77;99367.75;4992822;28;20063;-75
2024/04/01 07:36:58;;;;;;;2.67;0.60;;;;;;;18.39;49.03;99341.66;4991471;28;20056;-70
2024/04/01 07:39:23;;;;;;;1.90;0.83;;;;;;;18.57;48.87;99374.00;4993028;28;20096;-73
2024/04/01 07:41:49;;;;;;;4.53;1.20;;;;;;;18.59;48.97;99387.03;4999794;28;20271;-73
2024/04/01 07:44:15;;;;;;;2.13;0.75;;;;;;;18.59;48.98;99385.22;4991231;28;20486;-72
2024/04/01 07:46:40;;;;;;;1.58;0.63;;;;;;;18.58;49.14;99372.19;4991357;28;20411;-72
2024/04/01 07:49:05;;;;;;;3.00;0.80;;;;;;;18.51;49.06;99363.28;4993042;28;20050;-73
2024/04/01 07:51:31;;;;;;;1.53;0.83;;;;;;;18.64;48.90;99388.22;4991819;28;20026;-67
2024/04/01 07:53:56;;;;;;;1.90;0.75;;;;;;;18.62;49.03;99378.78;4992139;28;20287;-75
2024/04/01 07:56:23;;;;;;;2.97;0.82;;;;;;;18.64;49.18;99379.44;4992817;28;20995;-70
2024/04/01 07:58:48;;;;;;;1.30;0.60;;;;;;;18.66;49.00;99388.88;4991398;28;20084;-76
2024/04/01 08:01:14;;;;;;;1.75;0.70;;;;;;;18.56;49.10;99374.16;4993108;28;20530;-71
2024/04/01 08:03:39;;;;;;;3.03;1.08;;;;;;;18.46;49.09;99359.31;4991559;28;20049;-72
2024/04/01 08:06:05;;;;;;;3.58;0.95;;;;;;;18.58;49.07;99377.47;4991501;28;20038;-71
2024/04/01 08:08:30;;;;;;;2.63;0.70;;;;;;;18.68;49.13;99400.06;4992090;28;20033;-77
2024/04/01 08:10:56;;;;;;;2.50;0.80;;;;;;;18.65;49.13;99403.03;4991459;28;20038;-71
2024/04/01 08:13:21;;;;;;;1.67;0.80;;;;;;;18.75;48.87;99424.00;4990277;28;20166;-72
2024/04/01 08:15:57;;;;;;;1.55;0.70;;;;;;;18.65;48.96;99420.69;4990936;28;20026;-71
2024/04/01 08:18:22;;;;;;;4.15;1.00;;;;;;;18.81;48.87;99435.72;4991580;28;20062;-72
2024/04/01 08:20:48;;;;;;;2.40;0.73;;;;;;;18.78;49.06;99417.56;4992020;28;20065;-70
2024/04/01 08:23:13;;;;;;;2.47;0.80;;;;;;;18.77;49.07;99422.03;4986973;28;20487;-81
2024/04/01 08:25:38;;;;;;;2.50;0.77;;;;;;;18.66;48.84;99401.25;4984434;28;20037;-70
2024/04/01 08:28:04;;;;;;;2.95;0.75;;;;;;;18.79;48.91;99430.59;4985201;28;20030;-72
2024/04/01 08:30:29;;;;;;;2.08;0.93;;;;;;;18.69;48.89;99427.28;4987368;28;20045;-75
2024/04/01 08:32:55;;;;;;;2.35;0.90;;;;;;;18.85;48.87;99466.94;4982135;28;20034;-77
2024/04/01 08:35:20;;;;;;;3.90;0.80;;;;;;;18.74;48.90;99440.84;4985472;28;20477;-74
2024/04/01 08:37:45;;;;;;;4.10;0.90;;;;;;;18.89;48.72;99470.06;4984545;28;20044;-68
2024/04/01 08:40:11;;;;;;;4.05;1.10;;;;;;;18.87;48.73;99472.06;4989607;28;20045;-69
2024/04/01 08:42:38;;;;;;;3.25;0.73;;;;;;;18.60;48.99;99428.28;4991879;28;20034;-73
2024/04/01 08:45:05;;;;;;;2.75;0.70;;;;;;;18.82;48.92;99467.25;4982161;28;20089;-72
2024/04/01 08:47:35;;;;;;;4.53;1.00;;;;;;;18.70;48.80;99444.78;4990597;28;20034;-72
2024/04/01 08:50:04;;;;;;;3.40;0.95;;;;;;;18.81;48.88;99462.94;4989755;28;20042;-70
2024/04/01 08:52:43;;;;;;;4.82;0.90;;;;;;;18.90;48.91;99470.88;4991383;28;20046;-72
2024/04/01 08:55:09;;;;;;;3.88;0.70;;;;;;;18.97;48.88;99485.91;4991463;28;20042;-70
2024/04/01 08:57:36;;;;;;;2.67;0.95;;;;;;;18.61;48.66;99438.66;4989777;28;20030;-72
2024/04/01 09:00:02;;;;;;;1.65;0.82;;;;;;;18.90;48.92;99481.44;4991188;28;21029;-75
2024/04/01 09:02:28;;;;;;;2.63;0.90;;;;;;;19.02;49.09;99509.19;4990629;28;20030;-71
2024/04/01 09:04:53;;;;;;;2.40;0.80;;;;;;;19.02;49.18;99507.38;4989595;28;20092;-73
2024/04/01 09:07:19;;;;;;;2.17;0.70;;;;;;;18.97;49.11;99499.13;4990036;28;20034;-73
2024/04/01 09:09:44;;;;;;;2.83;1.15;;;;;;;18.94;48.93;99496.00;4990283;28;20784;-70
2024/04/01 09:12:09;;;;;;;2.47;0.93;;;;;;;18.99;49.27;99493.69;4989354;28;20037;-73
2024/04/01 09:14:35;;;;;;;2.28;0.80;;;;;;;18.91;48.81;99483.94;4988745;28;20211;-73
2024/04/01 09:17:00;;;;;;;2.45;0.88;;;;;;;18.96;48.98;99492.22;4989264;28;20048;-73
2024/04/01 09:19:26;;;;;;;4.80;0.90;;;;;;;19.07;48.98;99511.34;4988690;28;20422;-75
2024/04/01 09:21:52;;;;;;;2.70;0.77;;;;;;;19.07;48.88;99508.72;4992816;28;20439;-73
2024/04/01 09:24:17;;;;;;;3.63;1.60;;;;;;;18.92;48.95;99492.69;4989127;28;20038;-70
2024/04/01 09:26:43;;;;;;;3.88;0.80;;;;;;;19.08;48.93;99516.47;4988921;28;20034;-71
2024/04/01 09:29:09;;;;;;;2.10;0.80;;;;;;;18.92;48.63;99498.78;4989027;28;20034;-71
2024/04/01 09:31:34;;;;;;;3.42;1.10;;;;;;;18.97;49.01;99512.31;4986146;28;20477;-72
2024/04/01 09:34:00;;;;;;;3.63;1.10;;;;;;;19.07;48.80;99519.28;4989491;28;20038;-72
2024/04/01 09:36:25;;;;;;;2.70;1.00;;;;;;;19.05;48.54;99516.78;4987988;28;20460;-76
2024/04/01 09:38:54;;;;;;;6.15;1.10;;;;;;;19.05;48.78;99514.16;4989646;28;20049;-70
2024/04/01 09:41:20;;;;;;;3.75;1.00;;;;;;;19.00;48.93;99513.81;4989671;28;20030;-70
2024/04/01 09:43:46;;;;;;;3.15;1.13;;;;;;;19.01;48.98;99526.88;4987113;28;20034;-71
2024/04/01 09:46:12;;;;;;;3.08;0.93;;;;;;;18.92;48.94;99519.09;4990241;28;20046;-70
2024/04/01 09:48:37;;;;;;;2.80;0.95;;;;;;;19.00;49.00;99529.66;4987460;28;20057;-72
2024/04/01 09:51:04;;;;;;;5.68;0.93;;;;;;;19.03;49.24;99540.72;4988617;28;20034;-71
2024/04/01 09:53:29;;;;;;;3.55;1.20;;;;;;;18.77;49.13;99489.81;4989947;28;20030;-71
2024/04/01 09:56:01;;;;;;;3.60;1.10;;;;;;;19.06;49.10;99541.38;4989201;28;20572;-71
2024/04/01 09:58:57;;;;;;;2.83;1.20;;;;;;;19.06;49.21;99542.22;4988656;28;20600;-72
2024/04/01 10:01:29;;;;;;;3.70;1.10;;;;;;;19.06;49.25;99539.59;4988977;28;20042;-72
2024/04/01 10:04:25;;;;;;;2.45;0.90;;;;;;;19.06;49.15;99550.16;4988121;28;20065;-71
2024/04/01 10:07:22;;;;;;;3.33;1.17;;;;;;;19.06;49.17;99557.22;4988725;28;20030;-69
2024/04/01 10:10:06;;;;;;;1.80;1.00;;;;;;;19.04;49.38;99560.03;4989920;28;20030;-70
2024/04/01 10:12:53;;;;;;;4.90;0.90;;;;;;;19.05;49.44;99563.50;4995734;28;20103;-76
2024/04/01 10:15:36;;;;;;;2.67;0.90;;;;;;;19.06;49.11;99562.50;4989147;28;20279;-70
2024/04/01 10:18:24;;;;;;;10.13;1.20;;;;;;;19.05;49.32;99568.78;4990440;28;20034;-71
2024/04/01 10:21:14;;;;;;;4.40;1.20;;;;;;;19.06;49.24;99563.34;4989457;28;20491;-72
2024/04/01 10:24:20;;;;;;;2.45;1.00;;;;;;;19.06;49.38;99571.28;4991523;28;20031;-73
2024/04/01 10:27:19;;;;;;;2.42;1.20;;;;;;;19.08;49.45;99568.47;4988478;28;20041;-77
2024/04/01 10:30:50;;;;;;;5.47;1.17;;;;;;;19.04;49.41;99573.22;4989198;28;20172;-71
2024/04/01 10:33:40;;;;;;;2.67;1.00;;;;;;;19.07;49.16;99564.97;4989908;28;20042;-71
2024/04/01 10:36:09;;;;;;;2.05;0.90;;;;;;;19.08;49.29;99576.38;4987560;28;20042;-74
2024/04/01 10:39:19;;;;;;;4.10;1.35;;;;;;;19.08;49.42;99576.38;4987470;28;20061;-72
2024/04/01 10:42:05;;;;;;;4.80;1.35;;;;;;;19.08;49.22;99587.78;4980429;28;20042;-72
2024/04/01 10:44:36;;;;;;;3.00;0.90;;;;;;;19.10;49.09;99584.97;5005363;28;20924;-75
2024/04/01 10:47:08;;;;;;;3.15;1.08;;;;;;;19.09;49.18;99584.16;4986760;28;20550;-74
2024/04/01 10:49:33;;;;;;;2.92;1.23;;;;;;;19.09;49.00;99585.94;4990123;28;20050;-70
2024/04/01 10:52:23;;;;;;;3.45;1.00;;;;;;;19.10;48.97;99592.88;4989782;28;20061;-69
2024/04/01 10:55:00;;;;;;;3.13;1.10;;;;;;;19.10;48.90;99590.25;4996188;28;20045;-74
2024/04/01 10:57:37;;;;;;;2.13;1.00;;;;;;;18.79;48.99;99548.56;4990444;28;20084;-70
2024/04/01 11:00:29;;;;;;;3.25;1.08;;;;;;;19.08;49.14;99603.63;4984572;28;20041;-71
2024/04/01 11:03:45;;;;;;;2.92;1.10;;;;;;;19.09;49.07;99607.91;4994081;28;20080;-71
2024/04/01 11:06:45;;;;;;;3.58;1.00;;;;;;;19.11;48.87;99615.69;5008575;28;20523;-70
2024/04/01 11:09:25;;;;;;;2.47;1.00;;;;;;;19.00;48.97;99606.22;4993546;28;20026;-73
2024/04/01 11:12:24;;;;;;;3.88;1.27;;;;;;;19.13;48.92;99630.34;4992099;28;20911;-75
2024/04/01 11:14:54;;;;;;;3.83;1.10;;;;;;;18.98;48.94;99610.84;4991544;28;20034;-72
2024/04/01 11:17:19;;;;;;;3.78;0.85;;;;;;;18.95;48.81;99611.19;4994589;28;20039;-70
2024/04/01 11:20:07;;;;;;;2.60;0.90;;;;;;;19.14;48.91;99647.06;4983698;28;20492;-69
2024/04/01 11:22:52;;;;;;;3.38;1.02;;;;;;;19.02;48.85;99609.53;4991460;28;20207;-77
2024/04/01 11:25:27;;;;;;;2.05;0.90;;;;;;;18.99;48.87;99610.69;4992617;28;20053;-71
2024/04/01 11:28:04;;;;;;;4.03;1.17;;;;;;;19.17;48.82;99644.09;4993316;28;20037;-70
2024/04/01 11:30:36;;;;;;;2.78;1.00;;;;;;;19.06;48.84;99624.09;4991724;28;20982;-72
2024/04/01 11:33:08;;;;;;;3.90;1.02;;;;;;;18.98;48.63;99614.31;4993138;28;20460;-75
2024/04/01 11:35:44;;;;;;;3.00;0.90;;;;;;;18.98;48.48;99605.56;4992941;28;20484;-72
2024/04/01 11:38:28;;;;;;;3.95;1.10;;;;;;;19.19;48.39;99640.28;4993188;28;20095;-75
2024/04/01 11:40:56;;;;;;;6.82;1.20;;;;;;;19.06;48.68;99626.72;4992664;28;20038;-76